Time;durP1;ratioP1;P1;durP2;ratioP2;P2;SDS_P1;SDS_P2;PMS_P1;PMS_P2;Temp;Humidity;BMP_temperature;BMP_pressure;BME280_temperature;BME280_humidity;BME280_pressure;Samples;Min_cycle;Max_cycle;Signal;HPM_P1;HPM_P2
2022/10/23 00:01:46;;;;;;;18.50;8.45;;;;;;;10.06;100.00;101514.97;5037101;28;20078;-85
2022/10/23 00:04:20;;;;;;;13.23;7.32;;;;;;;10.03;100.00;101510.50;5047229;28;20044;-86
2022/10/23 00:06:49;;;;;;;21.48;8.13;;;;;;;10.02;100.00;101506.13;5084282;28;20127;-86
2022/10/23 00:09:21;;;;;;;13.85;8.65;;;;;;;10.00;100.00;101502.56;5063431;28;20049;-86
2022/10/23 00:11:51;;;;;;;19.45;8.57;;;;;;;10.00;100.00;101502.56;5085686;28;20055;-86
2022/10/23 00:14:22;;;;;;;21.20;10.77;;;;;;;10.00;100.00;101505.22;5055176;28;20032;-87
2022/10/23 00:16:50;;;;;;;16.58;10.07;;;;;;;9.99;100.00;101495.53;5085375;28;20054;-86
2022/10/23 00:19:19;;;;;;;21.83;9.55;;;;;;;9.98;100.00;101492.84;5053017;28;20063;-87
2022/10/23 00:21:47;;;;;;;19.65;10.50;;;;;;;9.96;100.00;101492.84;5045344;28;20275;-86
2022/10/23 00:24:16;;;;;;;28.50;10.75;;;;;;;9.97;100.00;101491.97;5069674;28;20048;-85
2022/10/23 00:26:44;;;;;;;24.38;10.57;;;;;;;9.98;100.00;101492.84;5080627;28;20040;-86
2022/10/23 00:29:13;;;;;;;27.98;11.75;;;;;;;9.98;100.00;101495.50;5049270;28;20059;-86
2022/10/23 00:31:41;;;;;;;26.05;11.52;;;;;;;10.00;100.00;101493.75;5074520;28;20540;-85
2022/10/23 00:34:10;;;;;;;27.70;11.65;;;;;;;10.01;100.00;101488.53;5073712;28;20051;-86
2022/10/23 00:36:38;;;;;;;29.52;12.63;;;;;;;10.01;100.00;101496.44;5095563;28;20047;-86
2022/10/23 00:39:08;;;;;;;21.10;12.00;;;;;;;10.02;100.00;101482.41;5069598;28;20040;-85
2022/10/23 00:41:36;;;;;;;26.95;12.85;;;;;;;10.04;100.00;101490.34;5074877;28;20339;-85
2022/10/23 00:44:17;;;;;;;29.13;14.55;;;;;;;10.05;100.00;101486.84;5075272;28;20037;-85
2022/10/23 00:46:45;;;;;;;;;;;;;;;10.08;100.00;101484.25;5071407;28;20548;-84
2022/10/23 00:49:14;;;;;;;20.20;12.75;;;;;;;10.08;100.00;101484.25;5066763;28;19927;-85
2022/10/23 00:51:46;;;;;;;28.17;12.82;;;;;;;10.09;100.00;101497.47;5064580;28;20556;-85
2022/10/23 00:54:18;;;;;;;21.95;13.32;;;;;;;10.10;100.00;101488.69;5081755;28;20054;-84
2022/10/23 00:56:57;;;;;;;23.08;13.70;;;;;;;10.10;100.00;101493.94;5091054;28;20043;-85
2022/10/23 00:59:26;;;;;;;23.90;13.27;;;;;;;10.11;100.00;101497.44;5089988;28;20604;-84
2022/10/23 01:01:54;;;;;;;25.45;14.57;;;;;;;10.09;100.00;101500.09;5094430;28;20050;-84
2022/10/23 01:04:23;;;;;;;23.50;13.35;;;;;;;10.08;100.00;101495.66;5073779;28;20043;-84
2022/10/23 01:07:01;;;;;;;18.73;12.48;;;;;;;10.07;100.00;101493.00;5056056;28;20044;-85
2022/10/23 01:10:09;;;;;;;24.80;13.43;;;;;;;10.04;100.00;101491.22;5077060;27;20354;-84
2022/10/23 01:13:04;;;;;;;25.27;12.70;;;;;;;10.01;100.00;101491.16;5066378;28;20256;-85
2022/10/23 01:15:43;;;;;;;23.95;13.15;;;;;;;9.98;100.00;101496.41;5074993;28;20165;-86
2022/10/23 01:18:14;;;;;;;23.63;12.80;;;;;;;9.96;100.00;101495.47;5085129;28;20047;-86
2022/10/23 01:21:08;;;;;;;26.30;14.25;;;;;;;9.94;100.00;101512.97;5092287;28;20056;-86
2022/10/23 01:24:19;;;;;;;24.90;14.07;;;;;;;9.91;100.00;101505.94;5049950;28;20055;-85
2022/10/23 01:26:52;;;;;;;28.92;16.08;;;;;;;9.92;100.00;101510.34;5008063;28;20055;-85
2022/10/23 01:29:30;;;;;;;26.63;14.35;;;;;;;9.92;100.00;101505.09;5081001;28;20058;-86
2022/10/23 01:32:08;;;;;;;35.95;15.63;;;;;;;9.92;100.00;101501.53;5085947;28;20458;-85
2022/10/23 01:35:06;;;;;;;33.78;17.05;;;;;;;9.93;100.00;101500.69;5073175;28;20043;-85
2022/10/23 01:37:48;;;;;;;30.02;16.02;;;;;;;9.94;100.00;101498.09;5034446;28;20287;-85
2022/10/23 01:40:24;;;;;;;30.10;17.70;;;;;;;9.97;100.00;101494.63;5080935;28;20047;-85
2022/10/23 01:42:57;;;;;;;31.02;18.10;;;;;;;9.97;100.00;101494.63;5103409;28;20094;-85
2022/10/23 01:45:37;;;;;;;34.47;18.13;;;;;;;9.97;100.00;101491.09;5106184;28;20548;-86
2022/10/23 01:48:12;;;;;;;37.63;18.35;;;;;;;9.96;100.00;101492.84;5074438;28;20511;-86
2022/10/23 01:50:44;;;;;;;26.70;17.20;;;;;;;9.95;100.00;101489.31;5086337;28;20036;-86
2022/10/23 01:53:13;;;;;;;32.03;19.10;;;;;;;9.95;100.00;101493.72;5058651;28;20043;-86
2022/10/23 01:55:43;;;;;;;34.00;17.20;;;;;;;9.95;100.00;101489.31;5055954;28;20599;-85
2022/10/23 01:58:20;;;;;;;30.52;18.85;;;;;;;9.93;100.00;101485.78;5094284;28;20052;-85
2022/10/23 02:00:54;;;;;;;30.10;17.83;;;;;;;9.93;100.00;101488.41;5060715;28;20063;-86
2022/10/23 02:03:24;;;;;;;20.17;15.60;;;;;;;9.93;100.00;101484.91;5077686;28;20044;-86
2022/10/23 02:05:53;;;;;;;30.60;17.25;;;;;;;9.91;100.00;101479.59;5056623;28;20047;-85
2022/10/23 02:08:22;;;;;;;27.77;17.33;;;;;;;9.89;100.00;101478.69;5064529;28;20031;-86
2022/10/23 02:11:10;;;;;;;27.20;17.30;;;;;;;9.87;100.00;101472.53;5069290;28;20047;-86
2022/10/23 02:13:55;;;;;;;32.08;18.95;;;;;;;9.86;100.00;101467.22;5073232;28;20153;-85
2022/10/23 02:16:35;;;;;;;31.95;19.15;;;;;;;9.85;100.00;101465.44;5063439;28;20039;-86
2022/10/23 02:19:30;;;;;;;29.25;18.08;;;;;;;9.84;100.00;101471.59;5091934;28;20036;-85
2022/10/23 02:22:25;;;;;;;23.23;15.35;;;;;;;9.84;100.00;101464.56;5063889;28;20044;-86
2022/10/23 02:24:59;;;;;;;26.95;17.10;;;;;;;9.85;100.00;101470.72;5056940;28;20028;-86
2022/10/23 02:27:38;;;;;;;24.42;17.13;;;;;;;9.85;100.00;101466.34;5090367;28;20044;-86
2022/10/23 02:30:13;;;;;;;24.40;17.45;;;;;;;9.86;100.00;101464.59;5081243;28;20578;-86
2022/10/23 02:32:53;;;;;;;26.95;19.08;;;;;;;9.87;100.00;101458.50;5079163;28;20047;-86
2022/10/23 02:35:23;;;;;;;32.42;18.75;;;;;;;9.87;100.00;101458.50;5092594;28;20031;-86
2022/10/23 02:38:00;;;;;;;23.08;16.35;;;;;;;9.88;100.00;101458.47;5073766;28;20040;-86
2022/10/23 02:40:40;;;;;;;25.33;17.17;;;;;;;9.89;100.00;101460.28;5039229;28;20036;-86
2022/10/23 02:43:26;;;;;;;36.42;18.08;;;;;;;9.89;100.00;101455.00;5094150;28;20036;-85
2022/10/23 02:46:13;;;;;;;30.60;17.58;;;;;;;9.87;100.00;101454.09;5087178;28;20048;-85
2022/10/23 02:48:51;;;;;;;24.48;18.13;;;;;;;9.86;100.00;101457.56;5107285;28;20044;-85
2022/10/23 02:51:38;;;;;;;29.85;18.23;;;;;;;9.87;100.00;101459.38;5104881;28;20058;-86
2022/10/23 02:54:15;;;;;;;27.95;18.17;;;;;;;9.87;100.00;101451.47;5072927;28;20040;-86
2022/10/23 02:57:13;;;;;;;25.05;17.60;;;;;;;9.89;100.00;101448.88;5081310;28;20419;-86
2022/10/23 02:59:58;;;;;;;29.38;19.30;;;;;;;9.91;100.00;101447.13;5088422;28;20256;-86
2022/10/23 03:02:39;;;;;;;24.35;17.17;;;;;;;9.90;100.00;101442.72;5092786;28;20066;-86
2022/10/23 03:05:17;;;;;;;28.08;18.00;;;;;;;9.91;100.00;101439.25;5076288;28;20047;-87
2022/10/23 03:07:46;;;;;;;29.83;17.70;;;;;;;9.89;100.00;101438.34;5074623;28;20250;-86
2022/10/23 03:10:18;;;;;;;26.08;16.88;;;;;;;9.89;100.00;101441.84;5074072;28;20036;-86
2022/10/23 03:12:47;;;;;;;26.77;17.17;;;;;;;9.89;100.00;101435.69;5073723;28;20051;-86
2022/10/23 03:15:18;;;;;;;26.45;18.27;;;;;;;9.91;100.00;101426.06;5080105;28;20040;-86
2022/10/23 03:17:49;;;;;;;28.08;18.05;;;;;;;9.90;100.00;101419.03;5070557;28;20043;-87
2022/10/23 03:20:18;;;;;;;28.25;18.13;;;;;;;9.92;100.00;101415.56;5104244;28;20047;-87
2022/10/23 03:22:46;;;;;;;31.23;17.92;;;;;;;9.95;100.00;101415.59;5058631;28;20044;-87
2022/10/23 03:25:15;;;;;;;24.75;17.38;;;;;;;9.99;100.00;101405.13;5077868;28;20044;-85
2022/10/23 03:27:43;;;;;;;32.13;19.23;;;;;;;10.01;100.00;101414.81;5069030;28;20027;-85
2022/10/23 03:30:15;;;;;;;33.08;18.77;;;;;;;10.02;100.00;101390.25;5057387;28;20040;-85
2022/10/23 03:32:47;;;;;;;34.42;20.55;;;;;;;10.05;100.00;101392.03;5091655;28;20044;-84
2022/10/23 03:35:16;;;;;;;34.60;21.55;;;;;;;10.07;100.00;101399.09;5076037;28;20039;-85
2022/10/23 03:37:44;;;;;;;33.10;19.15;;;;;;;10.08;100.00;101389.47;5094648;28;20039;-84
2022/10/23 03:40:13;;;;;;;36.70;20.65;;;;;;;10.09;100.00;101392.13;5079963;28;20040;-87
2022/10/23 03:42:41;;;;;;;30.58;18.70;;;;;;;10.10;100.00;101393.88;5069386;28;20159;-84
2022/10/23 03:45:14;;;;;;;31.42;18.63;;;;;;;10.12;100.00;101399.16;5073296;28;20036;-85
2022/10/23 03:47:43;;;;;;;29.48;17.67;;;;;;;10.12;100.00;101399.16;5059050;28;20047;-84
2022/10/23 03:50:12;;;;;;;29.02;18.48;;;;;;;10.13;100.00;101396.56;5082927;28;20040;-85
2022/10/23 03:52:41;;;;;;;42.42;20.90;;;;;;;10.14;100.00;101400.06;5063741;28;20284;-84
2022/10/23 03:55:12;;;;;;;29.98;17.67;;;;;;;10.13;100.00;101393.94;5089430;28;20044;-84
2022/10/23 03:57:41;;;;;;;26.92;18.08;;;;;;;10.13;100.00;101399.19;5066817;28;20245;-84
2022/10/23 04:00:12;;;;;;;30.58;18.08;;;;;;;10.15;100.00;101393.91;5078490;28;20043;-85
2022/10/23 04:02:47;;;;;;;28.35;18.15;;;;;;;10.15;100.00;101396.56;5059038;28;20058;-85
2022/10/23 04:05:17;;;;;;;31.42;17.15;;;;;;;10.14;100.00;101387.78;5088135;28;20040;-85
2022/10/23 04:07:54;;;;;;;31.40;18.08;;;;;;;10.13;100.00;101393.03;5080960;28;20515;-84
2022/10/23 04:10:22;;;;;;;24.70;17.67;;;;;;;10.12;100.00;101407.94;5096920;28;20531;-85
2022/10/23 04:12:51;;;;;;;28.65;17.55;;;;;;;10.10;100.00;101400.91;5054606;28;20039;-84
2022/10/23 04:15:20;;;;;;;29.92;17.95;;;;;;;10.08;100.00;101387.69;5075633;28;20541;-85
2022/10/23 04:17:49;;;;;;;26.90;18.00;;;;;;;10.11;100.00;101377.22;5061795;28;20017;-85
2022/10/23 04:20:20;;;;;;;29.80;15.85;;;;;;;10.13;100.00;101377.22;5083078;28;20043;-85
2022/10/23 04:22:49;;;;;;;27.30;17.92;;;;;;;10.12;100.00;101381.59;5057560;28;20036;-84
2022/10/23 04:25:17;;;;;;;30.17;17.25;;;;;;;10.11;100.00;101377.22;5058394;28;20264;-84
2022/10/23 04:27:46;;;;;;;29.48;17.45;;;;;;;10.09;100.00;101368.41;5050511;28;20035;-84
2022/10/23 04:30:14;;;;;;;21.23;15.85;;;;;;;10.08;100.00;101369.28;5080518;28;20036;-85
2022/10/23 04:32:44;;;;;;;28.73;15.03;;;;;;;10.07;100.00;101367.50;5058164;28;20068;-86
2022/10/23 04:35:12;;;;;;;29.55;15.00;;;;;;;10.04;100.00;101366.59;5048933;28;20047;-84
2022/10/23 04:37:40;;;;;;;18.90;14.38;;;;;;;10.03;100.00;101368.31;5052759;28;20043;-84
2022/10/23 04:40:10;;;;;;;24.83;15.63;;;;;;;10.02;100.00;101371.81;5059579;28;20027;-86
2022/10/23 04:42:39;;;;;;;22.77;15.35;;;;;;;10.00;100.00;101365.66;5084548;28;20051;-86
2022/10/23 04:45:08;;;;;;;20.30;13.93;;;;;;;9.99;100.00;101369.16;5069393;28;20038;-86
2022/10/23 04:47:36;;;;;;;20.65;14.85;;;;;;;9.97;100.00;101365.59;5063456;28;20043;-85
2022/10/23 04:50:05;;;;;;;25.38;15.77;;;;;;;9.97;100.00;101372.63;5065580;28;20388;-87
2022/10/23 04:52:57;;;;;;;23.27;15.88;;;;;;;9.93;100.00;101362.03;5078782;28;20044;-86
2022/10/23 04:55:50;;;;;;;19.58;13.75;;;;;;;9.91;100.00;101355.88;5103693;28;20043;-86
2022/10/23 04:58:45;;;;;;;23.67;14.45;;;;;;;9.89;100.00;101348.81;5083031;28;20044;-86
2022/10/23 05:01:13;;;;;;;19.48;13.90;;;;;;;9.89;100.00;101354.09;5064512;28;20047;-86
2022/10/23 05:03:43;;;;;;;20.55;14.65;;;;;;;9.85;100.00;101349.63;5047092;28;20043;-84
2022/10/23 05:06:11;;;;;;;23.38;14.75;;;;;;;9.85;100.00;101354.88;5048106;28;20043;-85
2022/10/23 05:08:43;;;;;;;18.92;14.07;;;;;;;9.83;100.00;101359.25;5101206;28;20369;-84
2022/10/23 05:11:36;;;;;;;24.13;14.10;;;;;;;9.81;100.00;101368.88;5095949;28;20046;-86
2022/10/23 05:14:07;;;;;;;17.52;13.60;;;;;;;9.78;100.00;101350.44;5072798;28;20040;-85
2022/10/23 05:16:45;;;;;;;21.48;14.18;;;;;;;9.77;100.00;101354.78;5036291;28;20496;-84
2022/10/23 05:19:19;;;;;;;26.73;15.15;;;;;;;9.75;100.00;101351.25;5057744;28;20381;-85
2022/10/23 05:21:54;;;;;;;26.92;14.13;;;;;;;9.75;100.00;101346.88;5051504;28;20393;-85
2022/10/23 05:24:29;;;;;;;23.67;15.60;;;;;;;9.75;100.00;101351.25;5080318;28;20047;-84
2022/10/23 05:27:00;;;;;;;20.20;13.25;;;;;;;9.75;100.00;101349.53;5077796;28;20055;-85
2022/10/23 05:29:31;;;;;;;25.45;15.48;;;;;;;9.75;100.00;101352.16;5076453;28;20059;-84
2022/10/23 05:32:08;;;;;;;20.13;14.90;;;;;;;9.74;100.00;101353.00;5068851;28;20058;-85
2022/10/23 05:34:38;;;;;;;21.98;14.35;;;;;;;9.73;100.00;101353.88;5083889;28;20878;-85
2022/10/23 05:37:13;;;;;;;22.13;14.18;;;;;;;9.73;100.00;101340.72;5081909;28;20520;-84
2022/10/23 05:39:42;;;;;;;21.98;15.88;;;;;;;9.75;100.00;101332.81;5083275;28;20397;-84
2022/10/23 05:42:19;;;;;;;21.35;15.43;;;;;;;9.75;100.00;101340.72;5087627;28;20121;-84
2022/10/23 05:44:47;;;;;;;28.35;16.95;;;;;;;9.76;100.00;101327.59;5049639;28;20044;-84
2022/10/23 05:47:35;;;;;;;27.60;16.08;;;;;;;9.76;100.00;101324.94;5057119;28;20126;-84
2022/10/23 05:50:27;;;;;;;22.25;15.23;;;;;;;9.76;100.00;101319.69;5072909;28;20047;-84
2022/10/23 05:53:22;;;;;;;22.13;16.02;;;;;;;9.77;100.00;101315.31;5090907;28;20326;-84
2022/10/23 05:56:11;;;;;;;27.15;16.75;;;;;;;9.78;100.00;101318.84;5029469;28;20055;-85
2022/10/23 05:59:02;;;;;;;29.35;17.02;;;;;;;9.79;100.00;101331.13;5097984;28;20031;-84
2022/10/23 06:01:52;;;;;;;22.20;16.00;;;;;;;9.79;100.00;101323.22;5080980;28;20043;-84
2022/10/23 06:04:41;;;;;;;22.67;16.25;;;;;;;9.80;100.00;101319.75;5095305;28;20050;-84
2022/10/23 06:07:24;;;;;;;28.42;16.30;;;;;;;9.81;100.00;101308.34;5082654;28;20236;-84
2022/10/23 06:09:54;;;;;;;27.52;16.13;;;;;;;9.80;100.00;101299.56;5076001;28;20034;-84
2022/10/23 06:12:22;;;;;;;25.25;17.52;;;;;;;9.79;100.00;101297.78;5071961;28;20048;-84
2022/10/23 06:14:53;;;;;;;29.35;17.95;;;;;;;9.78;100.00;101300.41;5074638;28;20134;-84
2022/10/23 06:17:28;;;;;;;27.67;16.83;;;;;;;9.73;100.00;101298.63;5030288;28;20055;-86
2022/10/23 06:20:02;;;;;;;28.38;17.88;;;;;;;9.72;100.00;101298.59;5086430;28;20056;-85
2022/10/23 06:22:36;;;;;;;26.42;16.92;;;;;;;9.73;100.00;101295.06;5072985;28;20142;-84
2022/10/23 06:25:21;;;;;;;29.58;16.45;;;;;;;9.73;100.00;101302.97;5068718;28;20267;-84
2022/10/23 06:27:51;;;;;;;35.05;17.65;;;;;;;9.74;100.00;101294.22;5058951;28;20027;-84
2022/10/23 06:30:19;;;;;;;24.65;16.95;;;;;;;9.76;100.00;101290.72;5064858;28;20038;-84
2022/10/23 06:32:50;;;;;;;28.67;16.90;;;;;;;9.80;100.00;101294.28;5093789;28;20040;-86
2022/10/23 06:35:19;;;;;;;33.35;17.40;;;;;;;9.82;100.00;101292.56;5053620;28;20142;-84
2022/10/23 06:37:47;;;;;;;26.30;16.55;;;;;;;9.85;100.00;101286.44;5068234;28;20047;-85
2022/10/23 06:40:21;;;;;;;30.25;18.15;;;;;;;9.87;100.00;101283.00;5065795;28;20037;-84
2022/10/23 06:42:56;;;;;;;24.65;16.20;;;;;;;9.89;100.00;101285.66;5081799;28;20449;-85
2022/10/23 06:45:34;;;;;;;30.25;17.23;;;;;;;9.91;100.00;101292.69;5086277;28;20240;-84
2022/10/23 06:48:15;;;;;;;26.50;15.60;;;;;;;9.92;100.00;101293.56;5081900;28;20051;-85
2022/10/23 06:50:43;;;;;;;23.08;15.80;;;;;;;9.92;100.00;101286.56;5068884;28;20036;-84
2022/10/23 06:53:15;;;;;;;24.60;15.73;;;;;;;9.94;100.00;101295.38;5058330;28;20040;-84
2022/10/23 06:55:58;;;;;;;27.45;15.35;;;;;;;9.96;100.00;101300.63;5077104;28;20280;-84
2022/10/23 06:58:27;;;;;;;28.90;17.58;;;;;;;9.98;100.00;101295.41;5097803;28;20036;-85
2022/10/23 07:01:06;;;;;;;23.35;15.57;;;;;;;9.99;100.00;101302.44;5073830;28;20039;-84
2022/10/23 07:03:35;;;;;;;29.23;16.92;;;;;;;10.02;100.00;101306.00;5076627;28;20523;-84
2022/10/23 07:06:09;;;;;;;36.90;19.05;;;;;;;10.03;100.00;101305.13;5107059;28;20055;-84
2022/10/23 07:08:38;;;;;;;29.10;15.80;;;;;;;10.08;100.00;101307.84;5098506;27;20044;-85
2022/10/23 07:11:28;;;;;;;22.48;14.45;;;;;;;10.10;100.00;101306.09;5112708;28;20492;-85
2022/10/23 07:13:57;;;;;;;30.85;15.68;;;;;;;10.13;100.00;101316.66;5076129;28;20052;-84
2022/10/23 07:16:26;;;;;;;25.73;14.82;;;;;;;10.16;100.00;101303.53;5076012;28;20409;-85
2022/10/23 07:18:59;;;;;;;23.15;15.15;;;;;;;10.18;100.00;101301.78;5091587;28;20067;-84
2022/10/23 07:21:30;;;;;;;21.95;13.05;;;;;;;10.23;100.00;101302.75;5070639;28;20137;-84
2022/10/23 07:24:17;;;;;;;18.90;13.30;;;;;;;10.26;100.00;101309.78;5093866;28;20039;-86
2022/10/23 07:26:46;;;;;;;24.48;13.80;;;;;;;10.29;100.00;101302.81;5070455;28;20051;-87
2022/10/23 07:29:15;;;;;;;19.70;13.82;;;;;;;10.31;100.00;101308.13;5089861;28;20036;-84
2022/10/23 07:31:44;;;;;;;20.10;12.52;;;;;;;10.33;100.00;101309.91;5077143;28;20055;-86
2022/10/23 07:34:35;;;;;;;18.25;12.98;;;;;;;10.38;100.00;101309.06;5039326;28;20553;-86
2022/10/23 07:37:37;;;;;;;21.52;11.55;;;;;;;10.42;100.00;101309.16;5086468;28;20043;-86
2022/10/23 07:40:10;;;;;;;20.85;13.27;;;;;;;10.48;100.00;101308.31;5055380;28;20382;-86
2022/10/23 07:42:43;;;;;;;19.42;12.02;;;;;;;10.53;100.00;101310.16;5077986;28;20040;-86
2022/10/23 07:45:12;;;;;;;17.73;12.68;;;;;;;10.59;100.00;101308.44;5054906;28;20039;-85
2022/10/23 07:47:49;;;;;;;21.70;12.50;;;;;;;10.63;100.00;101299.69;5079050;28;20118;-85
2022/10/23 07:50:19;;;;;;;18.58;12.25;;;;;;;10.67;100.00;101298.88;5075391;28;20036;-86
2022/10/23 07:52:48;;;;;;;19.08;12.18;;;;;;;10.72;100.00;101291.88;5055398;28;20262;-85
2022/10/23 07:55:17;;;;;;;23.40;11.95;;;;;;;10.76;100.00;101284.91;5046840;28;20390;-85
2022/10/23 07:58:05;;;;;;;19.10;11.68;;;;;;;10.80;100.00;101286.69;5071794;28;20056;-86
2022/10/23 08:00:50;;;;;;;22.65;11.75;;;;;;;10.83;100.00;101277.06;5052261;28;20059;-86
2022/10/23 08:03:32;;;;;;;22.73;12.63;;;;;;;10.89;100.00;101276.22;5060035;28;20043;-86
2022/10/23 08:06:03;;;;;;;16.25;11.38;;;;;;;10.91;100.00;101263.94;5067715;28;20049;-85
2022/10/23 08:08:31;;;;;;;21.20;12.80;;;;;;;10.96;100.00;101269.25;5041185;28;20051;-86
2022/10/23 08:11:04;;;;;;;22.20;13.13;;;;;;;11.00;100.00;101268.38;5040351;28;20036;-85
2022/10/23 08:13:43;;;;;;;19.55;11.27;;;;;;;11.05;100.00;101269.31;5049266;28;20044;-84
2022/10/23 08:16:12;;;;;;;24.65;11.90;;;;;;;11.08;100.00;101266.72;5047680;28;20036;-85
2022/10/23 08:19:03;;;;;;;21.52;12.10;;;;;;;11.14;100.00;101274.66;5029723;28;20059;-85
2022/10/23 08:21:32;;;;;;;20.80;11.85;;;;;;;11.19;100.00;101264.13;5042763;28;20072;-86
2022/10/23 08:24:03;;;;;;;19.23;12.07;;;;;;;11.24;100.00;101255.38;5064007;28;20040;-85
2022/10/23 08:26:32;;;;;;;22.42;13.50;;;;;;;11.28;100.00;101246.63;5058647;28;20052;-85
2022/10/23 08:29:01;;;;;;;18.45;11.38;;;;;;;11.35;100.00;101244.03;5067467;28;20044;-85
2022/10/23 08:31:30;;;;;;;19.52;10.30;;;;;;;11.39;100.00;101238.78;5024509;28;20122;-85
2022/10/23 08:34:17;;;;;;;13.00;9.85;;;;;;;11.44;100.00;101226.50;5076830;28;20047;-85
2022/10/23 08:36:48;;;;;;;14.15;10.18;;;;;;;11.49;100.00;101237.97;5091817;28;20043;-84
2022/10/23 08:39:18;;;;;;;15.90;11.13;;;;;;;11.54;100.00;101227.44;5022773;28;20496;-86
2022/10/23 08:42:18;;;;;;;15.00;9.73;;;;;;;11.61;100.00;101237.16;5059718;28;20056;-85
2022/10/23 08:45:22;;;;;;;19.50;10.60;;;;;;;11.67;100.00;101242.44;5069865;28;20036;-85
2022/10/23 08:48:03;;;;;;;14.20;9.88;;;;;;;11.76;100.00;101238.06;5068194;28;20055;-85
2022/10/23 08:51:15;;;;;;;22.38;10.43;;;;;;;11.82;100.00;101236.38;5090759;28;20056;-85
2022/10/23 08:53:59;;;;;;;16.85;9.27;;;;;;;11.89;100.00;101232.91;5044141;28;20053;-84
2022/10/23 08:56:38;;;;;;;15.40;9.27;;;;;;;11.96;100.00;101228.53;5051940;28;20333;-85
2022/10/23 08:59:36;;;;;;;18.23;9.25;;;;;;;12.01;100.00;101225.91;5077400;28;20055;-85
2022/10/23 09:02:29;;;;;;;15.80;8.75;;;;;;;12.05;100.00;101233.84;5036385;28;20757;-85
2022/10/23 09:04:58;;;;;;;14.10;9.00;;;;;;;12.12;100.00;101228.56;5080319;28;20041;-84
2022/10/23 09:07:54;;;;;;;16.20;8.93;;;;;;;12.15;100.00;101232.09;5058146;28;20055;-85
2022/10/23 09:11:02;;;;;;;13.35;7.85;;;;;;;12.21;100.00;101228.59;5042307;28;20040;-85
2022/10/23 09:13:53;;;;;;;22.00;14.57;;;;;;;12.27;100.00;101220.69;5039425;28;20490;-85
2022/10/23 09:16:43;;;;;;;12.32;8.05;;;;;;;12.28;100.00;101218.03;5049569;28;20410;-85
2022/10/23 09:19:16;;;;;;;9.55;7.75;;;;;;;12.34;100.00;101222.44;5064242;28;20044;-85
2022/10/23 09:21:48;;;;;;;16.35;7.47;;;;;;;12.40;100.00;101221.59;5077999;28;20040;-86
2022/10/23 09:24:19;;;;;;;18.48;7.78;;;;;;;12.45;100.00;101223.34;5033621;28;20040;-85
2022/10/23 09:26:50;;;;;;;14.38;7.72;;;;;;;12.50;100.00;101217.22;5049572;28;20048;-85
2022/10/23 09:29:25;;;;;;;13.70;8.68;;;;;;;12.55;100.00;101213.69;5064686;28;20055;-85
2022/10/23 09:31:56;;;;;;;13.70;8.10;;;;;;;12.61;100.00;101212.81;5027508;28;20974;-85
2022/10/23 09:34:30;;;;;;;13.30;7.82;;;;;;;12.67;100.00;101208.41;5073569;28;20052;-85
2022/10/23 09:37:02;;;;;;;13.23;7.93;;;;;;;12.76;100.00;101202.25;5061386;28;20056;-86
2022/10/23 09:39:33;;;;;;;11.60;7.90;;;;;;;12.84;100.00;101200.47;5063889;28;20160;-85
2022/10/23 09:42:12;;;;;;;;;;;;;;;12.91;100.00;101197.81;5046264;28;20036;-85
2022/10/23 09:44:48;;;;;;;11.25;7.80;;;;;;;12.99;100.00;101193.41;5054294;28;19939;-86
2022/10/23 09:47:19;;;;;;;14.82;7.60;;;;;;;13.05;100.00;101193.41;5066113;28;20039;-85
2022/10/23 09:49:53;;;;;;;11.13;7.72;;;;;;;13.10;100.00;101186.34;5058507;28;20045;-86
2022/10/23 09:52:29;;;;;;;14.18;8.95;;;;;;;13.15;100.00;101189.84;5070166;28;20526;-85
2022/10/23 09:55:14;;;;;;;9.65;8.40;;;;;;;13.22;100.00;101180.13;5054857;28;20528;-86
2022/10/23 09:57:44;;;;;;;15.30;8.60;;;;;;;13.25;100.00;101173.06;5053918;28;20047;-86
2022/10/23 10:00:17;;;;;;;13.38;8.23;;;;;;;13.29;100.00;101171.31;5083362;28;20043;-85
2022/10/23 10:02:56;;;;;;;11.77;8.73;;;;;;;13.33;100.00;101166.91;5099731;28;20044;-85
2022/10/23 10:06:03;;;;;;;12.18;7.93;;;;;;;13.35;100.00;101168.66;5081184;28;20039;-85
2022/10/23 10:08:49;;;;;;;12.18;8.40;;;;;;;13.39;100.00;101169.53;5071462;28;20032;-86
2022/10/23 10:11:40;;;;;;;11.10;8.10;;;;;;;13.44;100.00;101154.53;5100429;28;20062;-85
2022/10/23 10:14:43;;;;;;;15.25;7.93;;;;;;;13.47;100.00;101149.19;5055469;28;20355;-85
2022/10/23 10:17:29;;;;;;;14.77;8.70;;;;;;;13.50;100.00;101141.25;5066518;28;20044;-85
2022/10/23 10:20:16;;;;;;;13.82;7.63;;;;;;;13.52;100.00;101135.97;5074590;28;20031;-85
2022/10/23 10:22:53;;;;;;;14.00;7.97;;;;;;;13.54;100.00;101135.06;5083157;28;20040;-86
2022/10/23 10:25:38;;;;;;;13.80;8.32;;;;;;;13.60;100.00;101119.13;5087335;28;20040;-84
2022/10/23 10:28:24;;;;;;;17.67;8.77;;;;;;;13.66;100.00;101126.16;5089680;28;20043;-85
2022/10/23 10:31:14;;;;;;;13.38;8.52;;;;;;;13.74;100.00;101118.19;5043374;28;20099;-84
2022/10/23 10:33:55;;;;;;;18.23;7.85;;;;;;;13.79;100.00;101117.25;5075095;28;20055;-84
2022/10/23 10:37:04;;;;;;;11.60;8.05;;;;;;;13.85;100.00;101116.34;5083822;28;20040;-84
2022/10/23 10:39:54;;;;;;;11.73;7.68;;;;;;;13.91;100.00;101116.31;5078112;28;20036;-85
2022/10/23 10:42:44;;;;;;;13.38;7.97;;;;;;;13.97;100.00;101096.84;5080380;28;20032;-85
2022/10/23 10:45:17;;;;;;;14.93;7.55;;;;;;;14.03;100.00;101095.03;5042965;28;20484;-84
2022/10/23 10:47:55;;;;;;;12.60;7.28;;;;;;;14.10;100.00;101103.84;5100850;28;20040;-85
2022/10/23 10:50:37;;;;;;;10.63;6.90;;;;;;;14.15;100.00;101103.78;5093911;28;20032;-85
2022/10/23 10:53:27;;;;;;;8.40;6.53;;;;;;;14.20;100.00;101099.34;5088511;28;20048;-84
2022/10/23 10:55:58;;;;;;;7.43;6.37;;;;;;;14.22;100.00;101095.78;5076066;28;20359;-84
2022/10/23 10:59:09;;;;;;;10.38;7.28;;;;;;;14.27;100.00;101087.78;5108472;27;20281;-86
2022/10/23 11:01:55;;;;;;;15.23;7.78;;;;;;;14.32;100.00;101088.63;5028240;28;20441;-85
2022/10/23 11:05:08;;;;;;;9.93;6.95;;;;;;;14.40;100.00;101100.06;5075483;28;20055;-85
2022/10/23 11:07:41;;;;;;;8.93;6.88;;;;;;;14.46;100.00;101090.28;5075992;28;20284;-85
2022/10/23 11:10:17;;;;;;;9.30;6.50;;;;;;;14.50;100.00;101081.41;5081924;28;20047;-85
2022/10/23 11:12:47;;;;;;;11.55;6.60;;;;;;;14.53;100.00;101081.38;5073490;28;21874;-84
2022/10/23 11:15:37;;;;;;;9.48;6.28;;;;;;;14.55;100.00;101075.16;5076594;28;20036;-84
2022/10/23 11:18:14;;;;;;;11.32;6.40;;;;;;;14.59;100.00;101076.03;5091031;28;20043;-85
2022/10/23 11:21:09;;;;;;;10.80;7.18;;;;;;;14.63;100.00;101064.53;5066369;28;20033;-85
2022/10/23 11:24:29;;;;;;;12.05;7.57;;;;;;;14.65;100.00;101067.16;5086363;27;20264;-85
2022/10/23 11:27:09;;;;;;;9.73;6.65;;;;;;;14.67;100.00;101057.41;5047411;28;20534;-85
2022/10/23 11:29:50;;;;;;;9.05;6.68;;;;;;;14.71;100.00;101041.47;5081461;28;20055;-85
2022/10/23 11:32:25;;;;;;;;;;;;;;;14.74;100.00;101033.44;5079954;28;20040;-86
2022/10/23 11:35:05;;;;;;;11.70;6.60;;;;;;;14.78;100.00;101027.25;5093401;28;19926;-83
2022/10/23 11:37:33;;;;;;;7.53;6.07;;;;;;;14.82;100.00;101009.50;5104712;27;20184;-85
2022/10/23 11:40:05;;;;;;;10.07;6.28;;;;;;;14.87;100.00;101012.97;5059249;28;20055;-85
2022/10/23 11:42:46;;;;;;;11.43;5.68;;;;;;;14.91;100.00;100997.91;5074025;28;20145;-85
2022/10/23 11:45:35;;;;;;;9.10;6.10;;;;;;;14.95;100.00;100994.28;5075154;28;20036;-85
2022/10/23 11:48:23;;;;;;;12.32;5.80;;;;;;;14.98;100.00;100988.97;5078184;28;20040;-84
2022/10/23 11:50:56;;;;;;;8.88;5.72;;;;;;;15.02;100.00;100998.63;5093816;28;20055;-85
2022/10/23 11:53:31;;;;;;;12.10;5.90;;;;;;;15.05;100.00;100995.06;5051666;28;20041;-85